Trito Navigator — PCOU — position and weather

sailwx.info

Track history (hours):
 
Tides and Currents Weather Stations Pressure Air Temp Water Temp Dewpoint Dewpoint Depression Visibility Wind Speed Wind Dir Waves Ship Positions

Trito Navigator

Last reported at 2018-Feb-19 19:27 UTC. Time now 2018-Feb-20 02:14 UTC.
Position N 38°46' W 010°06'.

Length 117 m; draft 7.2 m.

Type: Cargo ship. MMSI: 245237000.

Date/timePositionNaut miles runAvg speedWind from/ knotsBaromVisibWave heightAir tempDewpointWater temp
2018-Feb-19 19:27N 38°46' W 010°06'713.4
2018-Feb-19 18:54N 38°54' W 010°06'513.5
2018-Feb-19 18:30N 38°59' W 010°06'713.2
2018-Feb-19 17:59N 39°06' W 010°06'613.1
2018-Feb-19 17:30N 39°12' W 010°06'1613.2
2018-Feb-19 16:15N 39°29' W 010°06'513.3
2018-Feb-19 15:54N 39°34' W 010°06'513.2
2018-Feb-19 15:30N 39°39' W 010°06'713.3
2018-Feb-19 15:00N 39°46' W 010°06'613.2
2018-Feb-19 14:30N 39°52' W 010°06'913.4
2018-Feb-19 13:51N 40°01' W 010°06'513.4
2018-Feb-19 13:30N 40°05' W 010°06'713.5
2018-Feb-19 13:01N 40°12' W 010°06'813.6
2018-Feb-19 12:26N 40°20' W 010°06'1413.4
2018-Feb-19 11:24N 40°34' W 010°06'613.4
2018-Feb-19 10:56N 40°40' W 010°06'61612.2
2018-Feb-17 08:34N 49°47' W 003°26'111.3
2018-Feb-17 08:29N 49°48' W 003°25'511.3
2018-Feb-17 08:00N 49°51' W 003°17'511.0
2018-Feb-17 07:30N 49°53' W 003°10'511.0
2018-Feb-17 07:00N 49°56' W 003°03'611.3
2018-Feb-17 06:30N 49°59' W 002°55'611.8
2018-Feb-17 06:00N 50°00' W 002°46'812.5
2018-Feb-17 05:20N 50°03' W 002°34'2814.9
2018-Feb-17 03:27N 50°10' W 001°52'716.5
2018-Feb-17 03:00N 50°12' W 001°40'816.4
2018-Feb-17 02:30N 50°15' W 001°28'816.3
2018-Feb-17 02:00N 50°17' W 001°16'2614.6
2018-Feb-17 00:15N 50°24' W 000°37'513.0
2018-Feb-16 23:50N 50°25' W 000°29'412.6
2018-Feb-16 23:30N 50°27' W 000°23'612.1
2018-Feb-16 22:59N 50°28' W 000°13'611.7
2018-Feb-16 22:30N 50°30' W 000°05'611.2
2018-Feb-16 22:00N 50°31' E 000°04'611.0
2018-Feb-16 21:31N 50°33' E 000°12'611.1
2018-Feb-16 21:01N 50°34' E 000°20'611.6
2018-Feb-16 20:30N 50°36' E 000°29'612.3
2018-Feb-16 20:00N 50°39' E 000°38'713.4
2018-Feb-16 19:30N 50°43' E 000°46'714.3
2018-Feb-16 19:01N 50°47' E 000°55'714.8
2018-Feb-16 18:30N 50°52' E 001°04'815.1
2018-Feb-16 17:57N 50°57' E 001°14'714.7
2018-Feb-16 17:30N 51°02' E 001°22'714.2
2018-Feb-16 17:00N 51°06' E 001°31'713.2
2018-Feb-16 16:30N 51°10' E 001°40'612.4
2018-Feb-16 16:00N 51°14' E 001°46'612.0
2018-Feb-16 15:30N 51°20' E 001°50'611.5
2018-Feb-16 15:00N 51°25' E 001°54'611.1
2018-Feb-16 14:30N 51°29' E 001°60'611.4
2018-Feb-16 14:01N 51°33' E 002°06'611.1
2018-Feb-16 13:30N 51°38' E 002°12'611.5
2018-Feb-16 13:00N 51°42' E 002°18'1912.4
2018-Feb-16 11:30N 51°56' E 002°39'1013.7
2018-Feb-16 10:48N 52°03' E 002°48'413.8
2018-Feb-16 10:29N 52°07' E 002°53'713.9
2018-Feb-16 10:00N 52°12' E 002°60'714.0
2018-Feb-16 09:29N 52°18' E 003°06'714.0
2018-Feb-16 09:00N 52°23' E 003°13'713.8
2018-Feb-16 08:30N 52°29' E 003°20'713.3
2018-Feb-16 07:57N 52°35' E 003°27'612.8
2018-Feb-16 07:29N 52°40' E 003°32'611.9
2018-Feb-16 06:57N 52°44' E 003°39'511.3
2018-Feb-16 06:30N 52°48' E 003°45'710.9
2018-Feb-16 05:52N 52°54' E 003°52'366 8.0
2018-Feb-14 08:04N 57°49' E 010°10'111.6
2018-Feb-14 07:59N 57°49' E 010°12'611.8
2018-Feb-14 07:30N 57°49' E 010°23'611.6
2018-Feb-14 07:00N 57°49' E 010°34'611.0
2018-Feb-14 06:30N 57°49' E 010°44'611.8
2018-Feb-14 06:00N 57°46' E 010°54'612.3
2018-Feb-14 05:30N 57°44' E 011°05'612.0
2018-Feb-14 05:00N 57°41' E 011°15'611.9
2018-Feb-14 04:30N 57°38' E 011°25'612.1
2018-Feb-14 04:00N 57°36' E 011°35'3 6.6
2018-Feb-14 03:31N 57°35' E 011°41'0 0.1
2018-Feb-14 02:59N 57°35' E 011°41'0 0.0
2018-Feb-14 02:28N 57°35' E 011°41'0 0.0
2018-Feb-14 01:55N 57°35' E 011°41'0 0.0
2018-Feb-14 01:30N 57°35' E 011°41'0 0.0
2018-Feb-14 01:00N 57°35' E 011°41'0 0.0
2018-Feb-14 00:30N 57°35' E 011°41'0 0.0
2018-Feb-14 00:00N 57°35' E 011°41'0 0.0
2018-Feb-13 23:29N 57°35' E 011°41'0 0.0
2018-Feb-13 22:59N 57°35' E 011°41'0 0.0
2018-Feb-13 22:29N 57°35' E 011°41'0 0.0
2018-Feb-13 21:59N 57°35' E 011°41'0 0.2
2018-Feb-13 21:29N 57°35' E 011°41'2 4.0
2018-Feb-13 21:00N 57°34' E 011°40'612.8
2018-Feb-13 20:30N 57°27' E 011°39'613.0
2018-Feb-13 20:01N 57°21' E 011°39'612.9
2018-Feb-13 19:31N 57°14' E 011°39'612.9
2018-Feb-13 19:00N 57°08' E 011°40'612.3
2018-Feb-13 18:31N 57°02' E 011°44'712.9
2018-Feb-13 17:57N 56°55' E 011°48'3712.4
2018-Feb-13 15:00N 56°21' E 012°12'612.5
2018-Feb-13 14:30N 56°16' E 012°19'612.7
2018-Feb-13 14:00N 56°11' E 012°26'612.5
2018-Feb-13 13:30N 56°07' E 012°33'612.2
2018-Feb-13 13:01N 56°02' E 012°40'612.4
2018-Feb-13 12:31N 55°56' E 012°44'611.9
2018-Feb-13 12:00N 55°50' E 012°44'612.2
2018-Feb-13 11:31N 55°44' E 012°42'611.4
2018-Feb-13 11:00N 55°38' E 012°42'5 9.6
2018-Feb-13 10:30N 55°33' E 012°42'510.7
2018-Feb-13 10:00N 55°28' E 012°42'611.7
2018-Feb-13 09:30N 55°22' E 012°41'510.2
2018-Feb-13 09:00N 55°18' E 012°45'612.0
2018-Feb-13 08:30N 55°16' E 012°55'510.3
2018-Feb-13 08:00N 55°15' E 013°04'612.2
2018-Feb-13 07:30N 55°15' E 013°15'1512.0
2018-Feb-13 06:17N 55°14' E 013°41'511.9
2018-Feb-13 05:52N 55°14' E 013°49'1611.2
2018-Feb-13 04:25N 55°15' E 014°18'711.4
2018-Feb-13 03:49N 55°20' E 014°25'411.4
2018-Feb-13 03:30N 55°23' E 014°29'610.8
2018-Feb-13 03:00N 55°27' E 014°36'610.8
2018-Feb-13 02:27N 55°30' E 014°45'510.6
2018-Feb-13 02:00N 55°32' E 014°52'510.6
2018-Feb-13 01:30N 55°35' E 014°60'510.5
2018-Feb-13 01:00N 55°37' E 015°08'510.4
2018-Feb-13 00:30N 55°40' E 015°16'510.4
2018-Feb-13 00:00N 55°43' E 015°24'510.4
2018-Feb-12 23:30N 55°45' E 015°32'510.4
2018-Feb-12 23:00N 55°48' E 015°40'510.0
2018-Feb-12 22:30N 55°50' E 015°48'5 9.5
2018-Feb-12 22:00N 55°53' E 015°55'5 9.3
2018-Feb-12 21:30N 55°55' E 016°02'5 9.2
2018-Feb-12 21:00N 55°57' E 016°09'4 9.0
2018-Feb-12 20:30N 55°59' E 016°16'4 8.6
2018-Feb-12 20:00N 56°02' E 016°23'4 8.5
2018-Feb-12 19:30N 56°04' E 016°30'4 8.5
2018-Feb-12 19:00N 56°06' E 016°36'4 8.4
2018-Feb-12 18:29N 56°09' E 016°42'4 8.5
2018-Feb-12 18:00N 56°12' E 016°46'4 8.9
2018-Feb-12 17:30N 56°16' E 016°49'5 8.8
2018-Feb-12 16:59N 56°21' E 016°52'22810.3
2018-Feb-11 18:55N 59°53' E 019°29'512.7
2018-Feb-11 18:30N 59°57' E 019°23'612.7
2018-Feb-11 18:00N 60°02' E 019°15'612.5
2018-Feb-11 17:30N 60°07' E 019°07'611.9
2018-Feb-11 17:00N 60°12' E 019°01'612.6
2018-Feb-11 16:30N 60°19' E 019°00'612.4
2018-Feb-11 16:00N 60°25' E 018°59'  
Track history (hours):
 
Tides and Currents Weather Stations Pressure Air Temp Water Temp Dewpoint Dewpoint Depression Visibility Wind Speed Wind Dir Waves Ship Positions

Trito Navigator

Last reported at 2018-Feb-19 19:27 UTC. Time now 2018-Feb-20 02:14 UTC.
Position N 38°46' W 010°06'.

Length 117 m; draft 7.2 m.

Type: Cargo ship. MMSI: 245237000.

Date/timePositionNaut miles runAvg speedWind from/ knotsBaromVisibWave heightAir tempDewpointWater temp
2018-Feb-19 19:27N 38°46' W 010°06'713.4
2018-Feb-19 18:54N 38°54' W 010°06'513.5
2018-Feb-19 18:30N 38°59' W 010°06'713.2
2018-Feb-19 17:59N 39°06' W 010°06'613.1
2018-Feb-19 17:30N 39°12' W 010°06'1613.2
2018-Feb-19 16:15N 39°29' W 010°06'513.3
2018-Feb-19 15:54N 39°34' W 010°06'513.2
2018-Feb-19 15:30N 39°39' W 010°06'713.3
2018-Feb-19 15:00N 39°46' W 010°06'613.2
2018-Feb-19 14:30N 39°52' W 010°06'913.4
2018-Feb-19 13:51N 40°01' W 010°06'513.4
2018-Feb-19 13:30N 40°05' W 010°06'713.5
2018-Feb-19 13:01N 40°12' W 010°06'813.6
2018-Feb-19 12:26N 40°20' W 010°06'1413.4
2018-Feb-19 11:24N 40°34' W 010°06'613.4
2018-Feb-19 10:56N 40°40' W 010°06'61612.2
2018-Feb-17 08:34N 49°47' W 003°26'111.3
2018-Feb-17 08:29N 49°48' W 003°25'511.3
2018-Feb-17 08:00N 49°51' W 003°17'511.0
2018-Feb-17 07:30N 49°53' W 003°10'511.0
2018-Feb-17 07:00N 49°56' W 003°03'611.3
2018-Feb-17 06:30N 49°59' W 002°55'611.8
2018-Feb-17 06:00N 50°00' W 002°46'812.5
2018-Feb-17 05:20N 50°03' W 002°34'2814.9
2018-Feb-17 03:27N 50°10' W 001°52'716.5
2018-Feb-17 03:00N 50°12' W 001°40'816.4
2018-Feb-17 02:30N 50°15' W 001°28'816.3
2018-Feb-17 02:00N 50°17' W 001°16'2614.6
2018-Feb-17 00:15N 50°24' W 000°37'513.0
2018-Feb-16 23:50N 50°25' W 000°29'412.6
2018-Feb-16 23:30N 50°27' W 000°23'612.1
2018-Feb-16 22:59N 50°28' W 000°13'611.7
2018-Feb-16 22:30N 50°30' W 000°05'611.2
2018-Feb-16 22:00N 50°31' E 000°04'611.0
2018-Feb-16 21:31N 50°33' E 000°12'611.1
2018-Feb-16 21:01N 50°34' E 000°20'611.6
2018-Feb-16 20:30N 50°36' E 000°29'612.3
2018-Feb-16 20:00N 50°39' E 000°38'713.4
2018-Feb-16 19:30N 50°43' E 000°46'714.3
2018-Feb-16 19:01N 50°47' E 000°55'714.8
2018-Feb-16 18:30N 50°52' E 001°04'815.1
2018-Feb-16 17:57N 50°57' E 001°14'714.7
2018-Feb-16 17:30N 51°02' E 001°22'714.2
2018-Feb-16 17:00N 51°06' E 001°31'713.2
2018-Feb-16 16:30N 51°10' E 001°40'612.4
2018-Feb-16 16:00N 51°14' E 001°46'612.0
2018-Feb-16 15:30N 51°20' E 001°50'611.5
2018-Feb-16 15:00N 51°25' E 001°54'611.1
2018-Feb-16 14:30N 51°29' E 001°60'611.4
2018-Feb-16 14:01N 51°33' E 002°06'611.1
2018-Feb-16 13:30N 51°38' E 002°12'611.5
2018-Feb-16 13:00N 51°42' E 002°18'1912.4
2018-Feb-16 11:30N 51°56' E 002°39'1013.7
2018-Feb-16 10:48N 52°03' E 002°48'413.8
2018-Feb-16 10:29N 52°07' E 002°53'713.9
2018-Feb-16 10:00N 52°12' E 002°60'714.0
2018-Feb-16 09:29N 52°18' E 003°06'714.0
2018-Feb-16 09:00N 52°23' E 003°13'713.8
2018-Feb-16 08:30N 52°29' E 003°20'713.3
2018-Feb-16 07:57N 52°35' E 003°27'612.8
2018-Feb-16 07:29N 52°40' E 003°32'611.9
2018-Feb-16 06:57N 52°44' E 003°39'511.3
2018-Feb-16 06:30N 52°48' E 003°45'710.9
2018-Feb-16 05:52N 52°54' E 003°52'366 8.0
2018-Feb-14 08:04N 57°49' E 010°10'111.6
2018-Feb-14 07:59N 57°49' E 010°12'611.8
2018-Feb-14 07:30N 57°49' E 010°23'611.6
2018-Feb-14 07:00N 57°49' E 010°34'611.0
2018-Feb-14 06:30N 57°49' E 010°44'611.8
2018-Feb-14 06:00N 57°46' E 010°54'612.3
2018-Feb-14 05:30N 57°44' E 011°05'612.0
2018-Feb-14 05:00N 57°41' E 011°15'611.9
2018-Feb-14 04:30N 57°38' E 011°25'612.1
2018-Feb-14 04:00N 57°36' E 011°35'3 6.6
2018-Feb-14 03:31N 57°35' E 011°41'0 0.1
2018-Feb-14 02:59N 57°35' E 011°41'0 0.0
2018-Feb-14 02:28N 57°35' E 011°41'0 0.0
2018-Feb-14 01:55N 57°35' E 011°41'0 0.0
2018-Feb-14 01:30N 57°35' E 011°41'0 0.0
2018-Feb-14 01:00N 57°35' E 011°41'0 0.0
2018-Feb-14 00:30N 57°35' E 011°41'0 0.0
2018-Feb-14 00:00N 57°35' E 011°41'0 0.0
2018-Feb-13 23:29N 57°35' E 011°41'0 0.0
2018-Feb-13 22:59N 57°35' E 011°41'0 0.0
2018-Feb-13 22:29N 57°35' E 011°41'0 0.0
2018-Feb-13 21:59N 57°35' E 011°41'0 0.2
2018-Feb-13 21:29N 57°35' E 011°41'2 4.0
2018-Feb-13 21:00N 57°34' E 011°40'612.8
2018-Feb-13 20:30N 57°27' E 011°39'613.0
2018-Feb-13 20:01N 57°21' E 011°39'612.9
2018-Feb-13 19:31N 57°14' E 011°39'612.9
2018-Feb-13 19:00N 57°08' E 011°40'612.3
2018-Feb-13 18:31N 57°02' E 011°44'712.9
2018-Feb-13 17:57N 56°55' E 011°48'3712.4
2018-Feb-13 15:00N 56°21' E 012°12'612.5
2018-Feb-13 14:30N 56°16' E 012°19'612.7
2018-Feb-13 14:00N 56°11' E 012°26'612.5
2018-Feb-13 13:30N 56°07' E 012°33'612.2
2018-Feb-13 13:01N 56°02' E 012°40'612.4
2018-Feb-13 12:31N 55°56' E 012°44'611.9
2018-Feb-13 12:00N 55°50' E 012°44'612.2
2018-Feb-13 11:31N 55°44' E 012°42'611.4
2018-Feb-13 11:00N 55°38' E 012°42'5 9.6
2018-Feb-13 10:30N 55°33' E 012°42'510.7
2018-Feb-13 10:00N 55°28' E 012°42'611.7
2018-Feb-13 09:30N 55°22' E 012°41'510.2
2018-Feb-13 09:00N 55°18' E 012°45'612.0
2018-Feb-13 08:30N 55°16' E 012°55'510.3
2018-Feb-13 08:00N 55°15' E 013°04'612.2
2018-Feb-13 07:30N 55°15' E 013°15'1512.0
2018-Feb-13 06:17N 55°14' E 013°41'511.9
2018-Feb-13 05:52N 55°14' E 013°49'1611.2
2018-Feb-13 04:25N 55°15' E 014°18'711.4
2018-Feb-13 03:49N 55°20' E 014°25'411.4
2018-Feb-13 03:30N 55°23' E 014°29'610.8
2018-Feb-13 03:00N 55°27' E 014°36'610.8
2018-Feb-13 02:27N 55°30' E 014°45'510.6
2018-Feb-13 02:00N 55°32' E 014°52'510.6
2018-Feb-13 01:30N 55°35' E 014°60'510.5
2018-Feb-13 01:00N 55°37' E 015°08'510.4
2018-Feb-13 00:30N 55°40' E 015°16'510.4
2018-Feb-13 00:00N 55°43' E 015°24'510.4
2018-Feb-12 23:30N 55°45' E 015°32'510.4
2018-Feb-12 23:00N 55°48' E 015°40'510.0
2018-Feb-12 22:30N 55°50' E 015°48'5 9.5
2018-Feb-12 22:00N 55°53' E 015°55'5 9.3
2018-Feb-12 21:30N 55°55' E 016°02'5 9.2
2018-Feb-12 21:00N 55°57' E 016°09'4 9.0
2018-Feb-12 20:30N 55°59' E 016°16'4 8.6
2018-Feb-12 20:00N 56°02' E 016°23'4 8.5
2018-Feb-12 19:30N 56°04' E 016°30'4 8.5
2018-Feb-12 19:00N 56°06' E 016°36'4 8.4
2018-Feb-12 18:29N 56°09' E 016°42'4 8.5
2018-Feb-12 18:00N 56°12' E 016°46'4 8.9
2018-Feb-12 17:30N 56°16' E 016°49'5 8.8
2018-Feb-12 16:59N 56°21' E 016°52'22810.3
2018-Feb-11 18:55N 59°53' E 019°29'512.7
2018-Feb-11 18:30N 59°57' E 019°23'612.7
2018-Feb-11 18:00N 60°02' E 019°15'612.5
2018-Feb-11 17:30N 60°07' E 019°07'611.9
2018-Feb-11 17:00N 60°12' E 019°01'612.6
2018-Feb-11 16:30N 60°19' E 019°00'612.4
2018-Feb-11 16:00N 60°25' E 018°59'  

Dump ship's entire track history